Flight Track Log - Related Links

Times and Time Zones

All times are in EDT time to prevent confusion due to time zone crossing. See the SWA2451 flight status page for this flight to view local times or setup timezone preferences in your user account.

Time Position Orientation Groundspeed Altitude Reporting Facility
EDT Latitude Longitude Course Direction KTS MPH feet Rate Location/Type
Fri 10:00:40 AM 27.9333 -82.5500 204° Southwest 180 207 1,800  Level Tampa TRACON
Fri 10:01:46 AM 27.8667 -82.5833 204° Southwest 201 231 4,600 2,810 Climbing Tampa TRACON
Fri 10:02:46 AM 27.8500 -82.6333 249° West 231 266 7,700 2,641 Climbing Tampa TRACON
Fri 10:05:15 AM 28.0267 -82.7092 339° North 287 330 13,800 2,641 Climbing Jacksonville Center
Fri 10:06:15 AM 28.1206 -82.7278 350° North 318 366 16,900 2,500 Climbing Jacksonville Center
Fri 10:07:15 AM 28.2186 -82.7467 350° North 337 388 18,800 2,100 Climbing Jacksonville Center
Fri 10:08:15 AM 28.3231 -82.7675 350° North 357 411 21,100 2,350 Climbing Jacksonville Center
Fri 10:09:15 AM 28.4275 -82.7886 350° North 376 433 23,500 1,900 Climbing Jacksonville Center
Fri 10:10:15 AM 28.5358 -82.8075 351° North 381 438 24,900 1,650 Climbing Jacksonville Center
Fri 10:11:15 AM 28.6486 -82.8286 351° North 391 450 26,800 1,600 Climbing Jacksonville Center
Fri 10:12:15 AM 28.7719 -82.8569 349° North 397 457 28,100 1,450 Climbing Jacksonville Center
Fri 10:13:15 AM 28.8908 -82.8856 348° North 409 471 29,700 1,650 Climbing Jacksonville Center
Fri 10:14:15 AM 29.0078 -82.9164 347° North 426 490 31,400 1,500 Climbing Jacksonville Center
Fri 10:15:15 AM 29.1036 -82.9947 324° Northwest 418 481 32,700 1,600 Climbing Jacksonville Center
Fri 10:16:15 AM 29.1975 -83.0758 323° Northwest 418 481 34,600 1,650 Climbing Jacksonville Center
Fri 10:17:15 AM 29.2850 -83.1497 324° Northwest 413 475 36,000 200 Climbing Jacksonville Center
Fri 10:18:15 AM 29.3789 -83.2239 325° Northwest 408 470 35,000 -1,000 Descending Jacksonville Center
Fri 10:19:15 AM 29.4683 -83.2981 324° Northwest 403 464 34,000 -500 Descending Jacksonville Center
Fri 10:20:15 AM 29.5619 -83.3750 324° Northwest 408 470 34,000 -300 Level Jacksonville Center
Fri 10:21:15 AM 29.6578 -83.4519 325° Northwest 408 470 33,400 -1,000 Descending Jacksonville Center
Fri 10:22:15 AM 29.7556 -83.5289 326° Northwest 413 475 32,000 -700 Descending Jacksonville Center
Fri 10:23:15 AM 29.8492 -83.6039 325° Northwest 418 481 32,000  Level Jacksonville Center
Fri 10:24:15 AM 29.9467 -83.6861 324° Northwest 423 487 32,000  Level Jacksonville Center
Fri 10:25:15 AM 30.0422 -83.7611 326° Northwest 423 487 32,000  Level Jacksonville Center
Fri 10:26:15 AM 30.1356 -83.8414 323° Northwest 423 487 32,000  Level Jacksonville Center
Fri 10:27:15 AM 30.2331 -83.9192 325° Northwest 423 487 32,000  Level Jacksonville Center
Fri 10:28:15 AM 30.3264 -83.9972 324° Northwest 423 487 32,000  Level Jacksonville Center
Fri 10:29:15 AM 30.4239 -84.0778 325° Northwest 423 487 32,000  Level Jacksonville Center
Fri 10:30:15 AM 30.5169 -84.1561 324° Northwest 423 487 32,000  Level Jacksonville Center
Fri 10:31:15 AM 30.6081 -84.2344 324° Northwest 415 478 32,000  Level Jacksonville Center
Fri 10:32:15 AM 30.7014 -84.3108 325° Northwest 410 472 32,000  Level Jacksonville Center
Fri 10:33:15 AM 30.7944 -84.3894 324° Northwest 410 472 32,000  Level Jacksonville Center
Fri 10:34:15 AM 30.8872 -84.4683 324° Northwest 410 472 32,000  Level Jacksonville Center
Fri 10:35:15 AM 30.9803 -84.5475 324° Northwest 405 466 32,000  Level Jacksonville Center
Fri 10:37:10 AM 31.1458 -84.6867 324° Northwest 411 473 32,000  Level Atlanta Center
Fri 10:38:10 AM 31.2372 -84.7675 323° Northwest 406 467 32,000  Level Atlanta Center
Fri 10:39:10 AM 31.3308 -84.8436 325° Northwest 406 467 32,000  Level Atlanta Center
Fri 10:40:10 AM 31.4242 -84.9222 324° Northwest 406 467 32,000  Level Atlanta Center
Fri 10:41:10 AM 31.5111 -84.9986 323° Northwest 406 467 32,000  Level Atlanta Center
Fri 10:42:10 AM 31.6025 -85.0800 323° Northwest 406 467 32,000  Level Atlanta Center
Fri 10:43:10 AM 31.7061 -85.1617 326° Northwest 406 467 32,000  Level Atlanta Center
Fri 10:44:10 AM 31.7992 -85.2436 323° Northwest 406 467 32,000  Level Atlanta Center
Fri 10:45:10 AM 31.8944 -85.3231 325° Northwest 406 467 32,000  Level Atlanta Center
Fri 10:46:10 AM 31.9894 -85.4053 324° Northwest 413 475 32,000  Level Atlanta Center
Fri 10:47:10 AM 32.0825 -85.4850 324° Northwest 413 475 32,000  Level Atlanta Center
Fri 10:48:10 AM 32.1775 -85.5700 323° Northwest 423 487 32,000  Level Atlanta Center
Fri 10:49:10 AM 32.2747 -85.6528 324° Northwest 428 493 32,000  Level Atlanta Center
Fri 10:50:10 AM 32.3694 -85.7358 323° Northwest 428 493 32,000  Level Atlanta Center
Fri 10:51:10 AM 32.4539 -85.8161 321° Northwest 433 498 32,000  Level Atlanta Center
Fri 10:52:10 AM 32.5653 -85.9069 326° Northwest 433 498 32,000  Level Atlanta Center
Fri 10:53:10 AM 32.6619 -85.9931 323° Northwest 433 498 32,000  Level Atlanta Center
Fri 10:54:10 AM 32.7589 -86.0767 324° Northwest 433 498 32,000  Level Atlanta Center
Fri 10:55:10 AM 32.8533 -86.1606 323° Northwest 433 498 32,000  Level Atlanta Center
Fri 10:56:10 AM 32.9500 -86.2519 322° Northwest 434 499 32,000  Level Atlanta Center
Fri 10:57:10 AM 33.0444 -86.3336 324° Northwest 434 499 32,000  Level Atlanta Center
Fri 10:58:10 AM 33.1239 -86.4300 315° West 434 499 32,000  Level Atlanta Center
Fri 10:59:10 AM 33.1047 -86.5608 260° West 355 409 32,000  Level Atlanta Center
Fri 11:00:10 AM 33.0667 -86.6786 249° West 383 441 32,000  Level Atlanta Center
Fri 11:01:10 AM 33.0306 -86.8114 252° West 399 459 32,000  Level Atlanta Center
Fri 11:02:10 AM 32.9942 -86.9342 251° West 399 459 32,000  Level Atlanta Center
Fri 11:03:10 AM 32.9578 -87.0592 251° West 405 466 32,000  Level Atlanta Center
Fri 11:04:10 AM 32.9211 -87.1864 251° West 405 466 32,000  Level Atlanta Center
Fri 11:05:10 AM 32.8847 -87.3114 251° West 405 466 32,000  Level Atlanta Center
Fri 11:06:10 AM 32.8519 -87.4386 253° West 405 466 32,000  Level Atlanta Center
Fri 11:08:20 AM 32.7689 -87.7064 250° West 395 455 32,000  Level Memphis Center
Fri 11:09:20 AM 32.7339 -87.8333 252° West 401 461 32,000  Level Memphis Center
Fri 11:10:20 AM 32.6947 -87.9678 251° West 401 461 32,000  Level Memphis Center
Fri 11:11:20 AM 32.6594 -88.0919 251° West 401 461 32,000  Level Memphis Center
Fri 11:12:20 AM 32.6219 -88.2114 250° West 401 461 32,000  Level Memphis Center
Fri 11:13:20 AM 32.5864 -88.3331 251° West 401 461 32,000  Level Memphis Center
Fri 11:14:20 AM 32.5531 -88.4547 252° West 396 456 32,000  Level Memphis Center
Fri 11:15:20 AM 32.5150 -88.5761 250° West 391 450 32,000  Level Memphis Center
Fri 11:16:20 AM 32.4772 -88.6975 250° West 391 450 32,000  Level Memphis Center
Fri 11:17:20 AM 32.4411 -88.8189 251° West 391 450 32,000  Level Memphis Center
Fri 11:18:20 AM 32.4050 -88.9350 250° West 391 450 32,000  Level Memphis Center
Fri 11:19:20 AM 32.3686 -89.0561 250° West 391 450 32,000  Level Memphis Center
Fri 11:20:20 AM 32.3322 -89.1772 250° West 391 450 32,000  Level Memphis Center
Fri 11:21:20 AM 32.2936 -89.2956 249° West 391 450 32,000  Level Memphis Center
Fri 11:22:20 AM 32.2569 -89.4164 250° West 391 450 32,000  Level Memphis Center
Fri 11:23:20 AM 32.2203 -89.5372 250° West 391 450 32,000  Level Memphis Center
Fri 11:24:20 AM 32.1814 -89.6578 249° West 391 450 32,000  Level Memphis Center
Fri 11:25:20 AM 32.1444 -89.7758 250° West 391 450 32,000  Level Memphis Center
Fri 11:26:20 AM 32.1075 -89.8986 250° West 391 450 32,000  Level Memphis Center
Fri 11:27:20 AM 32.0703 -90.0167 250° West 391 450 32,000  Level Memphis Center
Fri 11:28:20 AM 32.0517 -90.1417 260° West 391 450 32,000  Level Memphis Center
Fri 11:29:20 AM 32.0644 -90.2764 276° West 397 457 32,000  Level Memphis Center
Fri 11:30:20 AM 32.0811 -90.4089 278° West 402 463 32,000  Level Memphis Center
Fri 11:31:20 AM 32.0978 -90.5389 279° West 407 468 32,000  Level Memphis Center
Fri 11:32:20 AM 32.1100 -90.6714 276° West 407 468 32,000 -74 Level Memphis Center
Fri 11:32:41 AM 32.1128 -90.7006 276° West 406 467 31,900  Descending Houston Center
Fri 11:33:43 AM 32.1306 -90.8281 279° West 402 463 32,000 49 Climbing Houston Center
Fri 11:34:44 AM 32.1475 -90.9847 277° West 403 464 32,000  Level Houston Center
Fri 11:35:46 AM 32.1619 -91.1161 277° West 405 466 32,000  Level Houston Center
Fri 11:36:47 AM 32.1761 -91.2472 277° West 404 465 32,000  Level Houston Center
Fri 11:37:49 AM 32.1897 -91.3789 277° West 406 467 32,000  Level Houston Center
Fri 11:38:51 AM 32.2014 -91.5097 276° West 404 465 32,000  Level Houston Center
Fri 11:39:52 AM 32.2158 -91.6419 277° West 406 467 32,000  Level Houston Center
Fri 11:40:54 AM 32.2292 -91.7747 277° West 407 468 32,000  Level Houston Center
Fri 11:41:55 AM 32.2453 -91.9367 277° West 412 474 32,000  Level Houston Center
Fri 11:42:57 AM 32.2589 -92.0728 277° West 410 472 32,000  Level Houston Center
Fri 11:43:58 AM 32.2722 -92.2106 277° West 417 480 32,000  Level Houston Center
Fri 11:45:00 AM 32.2864 -92.3453 277° West 417 480 32,000  Level Houston Center
Fri 11:46:01 AM 32.2983 -92.4781 276° West 412 474 32,000  Level Houston Center
Fri 11:47:03 AM 32.3108 -92.6064 277° West 402 463 32,000 -1,122 Level Houston Center
Fri 11:48:04 AM 32.3222 -92.7261 276° West 390 449 29,700 -1,951 Descending Houston Center
Fri 11:49:06 AM 32.3361 -92.8825 276° West 399 459 28,000 -872 Descending Houston Center
Fri 11:50:01 AM 32.3425 -92.9950 274° West 405 466 28,000 -1,774 Level Fort Worth Center
Fri 11:51:01 AM 32.3342 -93.1158 265° West 400 460 24,600 -2,000 Descending Fort Worth Center
Fri 11:52:01 AM 32.3325 -93.2536 269° West 388 447 24,000 -300 Descending Fort Worth Center
Fri 11:53:01 AM 32.3367 -93.3761 272° West 383 441 24,000  Level Fort Worth Center
Fri 11:54:01 AM 32.3383 -93.4967 271° West 383 441 24,000  Level Fort Worth Center
Fri 11:55:01 AM 32.3397 -93.6122 271° West 372 428 24,000  Level Fort Worth Center
Fri 11:56:01 AM 32.3414 -93.7350 271° West 367 422 24,000  Level Fort Worth Center
Fri 11:57:01 AM 32.3447 -93.8578 272° West 367 422 24,000  Level Fort Worth Center
Fri 11:58:01 AM 32.3461 -93.9806 271° West 372 428 24,000  Level Fort Worth Center
Fri 11:59:01 AM 32.3475 -94.1061 271° West 372 428 24,000  Level Fort Worth Center
Fri 12:00:01 PM 32.3508 -94.2336 272° West 382 440 24,000  Level Fort Worth Center
Fri 12:01:01 PM 32.3517 -94.3567 270° West 387 445 24,000  Level Fort Worth Center
Fri 12:02:01 PM 32.3547 -94.4844 272° West 382 440 24,000  Level Fort Worth Center
Fri 12:03:01 PM 32.3556 -94.6097 270° West 387 445 24,000  Level Fort Worth Center
Fri 12:04:01 PM 32.3583 -94.7400 271° West 387 445 24,000  Level Fort Worth Center
Fri 12:05:01 PM 32.3567 -94.8581 269° West 382 440 24,000  Level Fort Worth Center
Fri 12:06:01 PM 32.3589 -94.9761 271° West 372 428 24,000  Level Fort Worth Center
Fri 12:07:01 PM 32.3653 -95.0867 274° West 372 428 24,000  Level Fort Worth Center
Fri 12:08:01 PM 32.3653 -95.2022 270° West 365 420 24,000  Level Fort Worth Center
Fri 12:09:01 PM 32.3839 -95.3175 281° West 360 414 24,000  Level Fort Worth Center
Fri 12:10:01 PM 32.4044 -95.4350 282° West 360 414 24,000  Level Fort Worth Center
Fri 12:11:01 PM 32.4250 -95.5478 282° West 360 414 24,000 -850 Level Fort Worth Center
Fri 12:12:01 PM 32.4456 -95.6606 282° West 360 414 22,300 -2,050 Descending Fort Worth Center
Fri 12:13:01 PM 32.4658 -95.7711 282° West 353 406 19,900 -2,300 Descending Fort Worth Center
Fri 12:14:01 PM 32.4817 -95.8742 280° West 342 394 17,700 -2,300 Descending Fort Worth Center
Fri 12:15:01 PM 32.4994 -95.9772 282° West 327 376 15,300 -2,400 Descending Fort Worth Center
Fri 12:16:01 PM 32.5194 -96.0878 282° West 322 371 12,900 -2,200 Descending Fort Worth Center
Fri 12:17:01 PM 32.5350 -96.1789 281° West 317 365 10,900 -1,400 Descending Fort Worth Center
Fri 12:18:01 PM 32.5550 -96.2844 283° West 312 359 10,100 -550 Descending Fort Worth Center
Fri 12:19:01 PM 32.5828 -96.3803 289° West 312 359 9,800 -600 Descending Fort Worth Center
Fri 12:20:01 PM 32.6044 -96.4689 286° West 293 337 8,900 -900 Descending Fort Worth Center
Fri 12:21:01 PM 32.6217 -96.5428 285° West 259 298 8,000 -1,200 Descending Fort Worth Center
Fri 12:22:01 PM 32.6431 -96.6092 291° West 229 264 6,500 -1,550 Descending Fort Worth Center
Fri 12:23:01 PM 32.6872 -96.6581 317° Northwest 216 249 4,900 -1,550 Descending Fort Worth Center
Fri 12:24:01 PM 32.7311 -96.7094 315° West 221 254 3,400 -1,180 Descending Fort Worth Center
Fri 12:25:03 PM 32.7667 -96.7500 316° Northwest 185 213 2,500 -872 Descending Dallas / Fort Worth TRACON
Fri 12:25:58 PM 32.8000 -96.7833 320° Northwest 163 188 1,700 -783 Descending Dallas / Fort Worth TRACON
Fri 12:26:58 PM 32.8333 -96.8167 320° Northwest 135 155 1,000 7,311 Descending Dallas / Fort Worth TRACON
Fri 12:29:01 PM 32.8825 -96.8864 310° West 143 165 24,000 7,541 Climbing Fort Worth Center
Fri 12:30:01 PM 32.9075 -96.9161 315° West 143 165 24,000  Level Fort Worth Center
Fri 12:31:01 PM 32.9347 -96.9481 315° West 143 165 24,000  Level Fort Worth Center
Fri 12:33:00 PM 32.8471 -96.8518 148° Southeast  Level Estimated
Fri 12:40:00 PM 32.8471 -96.8518 148° Southeast  Level Estimated
Fri 12:41:00 PM 32.8471 -96.8518 148° Southeast  Level Estimated
Fri 12:42:00 PM 32.8471 -96.8518 148° Southeast  Level Estimated

Login

Don't have an account? Register now (free) for customized features, flight alerts, and more!